createdAt,value
2019-02-05T14:52:55.947Z,53.10
2019-02-05T14:55:26.257Z,57.78
2019-02-05T14:57:58.241Z,53.85
2019-02-05T15:00:29.527Z,53.30
2019-02-05T15:03:02.148Z,55.05
2019-02-05T15:05:32.273Z,57.83
2019-02-05T15:08:02.029Z,58.68
2019-02-05T15:10:32.312Z,59.90
2019-02-05T15:13:02.147Z,55.03
2019-02-05T15:15:32.812Z,52.43
2019-02-05T15:18:02.633Z,57.37
2019-02-05T15:20:33.975Z,50.10
2019-02-05T15:23:04.635Z,56.23
2019-02-05T15:25:36.540Z,53.23
2019-02-05T15:28:07.001Z,51.83
2019-02-05T15:30:38.171Z,48.07
2019-02-05T15:33:20.607Z,55.50
2019-02-05T15:35:51.967Z,51.37
2019-02-05T15:38:22.950Z,46.77
2019-02-05T15:40:52.785Z,55.83
2019-02-05T15:43:22.665Z,52.65
2019-02-05T15:45:52.502Z,53.95
2019-02-05T15:48:23.021Z,52.38
2019-02-05T15:50:52.807Z,52.27
2019-02-05T15:53:23.826Z,51.80
2019-02-05T15:55:54.599Z,54.85
2019-02-05T15:58:24.542Z,51.00
2019-02-05T16:00:54.421Z,55.07
2019-02-05T16:03:24.514Z,53.27
2019-02-05T16:05:54.837Z,61.40
2019-02-05T16:08:25.385Z,54.70
2019-02-05T16:10:55.100Z,52.37
2019-02-05T16:13:24.930Z,59.23
2019-02-05T16:15:55.372Z,56.30
2019-02-05T16:18:25.460Z,59.63
2019-02-05T16:20:56.649Z,59.93
2019-02-05T16:23:26.496Z,55.40
2019-02-05T16:25:56.264Z,55.10
2019-02-05T16:28:26.396Z,57.25
2019-02-05T16:30:56.240Z,59.97
2019-02-05T16:33:26.052Z,58.77
2019-02-05T16:35:55.844Z,59.53
2019-02-05T16:38:25.690Z,59.60
2019-02-05T16:40:55.404Z,58.10
2019-02-05T16:43:27.961Z,50.50
2019-02-05T16:45:57.591Z,53.43
2019-02-05T16:48:27.518Z,56.97
2019-02-05T16:50:57.510Z,54.67
2019-02-05T16:53:27.594Z,58.23
2019-02-05T16:55:58.456Z,53.03
2019-02-05T16:58:28.273Z,57.90
2019-02-05T17:00:58.119Z,55.73
2019-02-05T17:03:27.975Z,52.20
2019-02-05T17:05:57.717Z,51.50
2019-02-05T17:08:27.538Z,54.60
2019-02-05T17:10:57.699Z,56.00
2019-02-05T17:13:27.505Z,55.23
2019-02-05T17:15:57.332Z,62.83
2019-02-05T17:18:27.180Z,51.87
2019-02-05T17:20:56.992Z,53.47
2019-02-05T17:23:27.292Z,50.97
2019-02-05T17:25:57.433Z,60.50
2019-02-05T17:28:27.527Z,54.07
2019-02-05T17:30:57.413Z,60.63
2019-02-05T17:33:28.096Z,60.30
2019-02-05T17:35:57.955Z,57.73
2019-02-05T17:38:27.821Z,58.60
2019-02-05T17:40:57.900Z,59.40
2019-02-05T17:43:27.727Z,60.13
2019-02-05T17:45:57.697Z,61.27
2019-02-05T17:48:28.628Z,59.20
2019-02-05T17:50:58.726Z,62.10
2019-02-05T17:53:28.838Z,60.93
2019-02-05T17:55:58.696Z,59.07
2019-02-05T17:58:28.452Z,58.53
2019-02-05T18:00:59.935Z,61.10
2019-02-05T18:03:29.706Z,64.50
2019-02-05T18:06:00.709Z,64.77
2019-02-05T18:08:30.827Z,65.23
2019-02-05T18:11:01.799Z,60.30
2019-02-05T18:13:32.966Z,67.77
2019-02-05T18:16:04.356Z,65.17
2019-02-05T18:18:35.869Z,66.00
2019-02-05T18:21:05.635Z,66.17
2019-02-05T18:23:35.413Z,67.80
2019-02-05T18:26:05.918Z,72.27
2019-02-05T18:28:36.134Z,64.60
2019-02-05T18:31:06.699Z,69.30
2019-02-05T18:33:36.650Z,76.30
2019-02-05T18:36:06.401Z,67.13
2019-02-05T18:38:36.551Z,66.50
2019-02-05T18:41:06.509Z,68.53
2019-02-05T18:43:37.197Z,68.37
2019-02-05T18:46:06.976Z,67.60
2019-02-05T18:48:38.332Z,70.07
2019-02-05T18:51:08.163Z,72.50
2019-02-05T18:53:38.085Z,66.33
2019-02-05T18:56:08.583Z,69.47
2019-02-05T18:58:40.088Z,65.23
2019-02-05T19:01:10.987Z,65.37
2019-02-05T19:03:40.821Z,69.67
2019-02-05T19:06:10.882Z,66.87
2019-02-05T19:08:40.598Z,68.03
2019-02-05T19:11:10.877Z,68.67
2019-02-05T19:13:42.238Z,70.97
2019-02-05T19:16:13.174Z,71.33
2019-02-05T19:18:43.926Z,69.10
2019-02-05T19:21:13.748Z,67.43
2019-02-05T19:23:43.562Z,69.43
2019-02-05T19:26:15.190Z,69.03
2019-02-05T19:28:45.418Z,67.60
2019-02-05T19:31:17.642Z,68.10
2019-02-05T19:33:47.460Z,64.77
2019-02-05T19:36:17.334Z,68.97
2019-02-05T19:38:47.623Z,66.83
2019-02-05T19:41:17.547Z,67.77
2019-02-05T19:43:47.410Z,65.20
2019-02-05T19:46:35.939Z,71.07
2019-02-05T19:49:07.816Z,72.53
2019-02-05T19:51:39.365Z,70.37
2019-02-05T19:54:11.862Z,68.93
2019-02-05T19:56:41.724Z,67.23
2019-02-05T19:59:12.526Z,71.53
2019-02-05T20:01:42.390Z,68.43
2019-02-05T20:04:12.228Z,63.87
2019-02-05T20:06:42.865Z,71.10
2019-02-05T20:09:14.274Z,67.77
2019-02-05T20:11:44.848Z,66.33
2019-02-05T20:14:14.649Z,66.60
2019-02-05T20:16:44.590Z,69.67
2019-02-05T20:19:14.613Z,69.57
2019-02-05T20:21:46.684Z,68.43
2019-02-05T20:24:16.537Z,73.47
2019-02-05T20:26:47.723Z,71.07
2019-02-05T20:29:18.287Z,65.00
2019-02-05T20:31:48.246Z,67.53
2019-02-05T20:34:18.438Z,73.90
2019-02-05T20:36:48.814Z,66.47
2019-02-05T20:39:18.870Z,70.07
2019-02-05T20:41:52.518Z,71.10
2019-02-05T20:44:21.494Z,69.57
2019-02-05T20:46:51.338Z,63.77
2019-02-05T20:49:21.167Z,66.73
2019-02-05T20:51:51.979Z,69.87
2019-02-05T20:54:21.801Z,71.17
2019-02-05T20:56:51.597Z,65.87
2019-02-05T20:59:22.199Z,70.67
2019-02-05T21:01:52.008Z,68.37
2019-02-05T21:04:21.722Z,70.30
2019-02-05T21:06:52.482Z,70.07
2019-02-05T21:09:22.359Z,72.60
2019-02-05T21:11:52.200Z,65.55
2019-02-05T21:14:22.323Z,72.33
2019-02-05T21:16:52.910Z,73.57
2019-02-05T21:19:22.787Z,71.33
2019-02-05T21:21:54.654Z,71.77
2019-02-05T21:24:24.575Z,71.00
2019-02-05T21:26:54.354Z,63.43
2019-02-05T21:29:24.099Z,72.83
2019-02-05T21:31:55.646Z,72.20
2019-02-05T21:34:25.410Z,75.90
2019-02-05T21:36:55.273Z,74.67
2019-02-05T21:39:25.131Z,76.73
2019-02-05T21:41:57.065Z,79.13
2019-02-05T21:44:27.003Z,72.97
2019-02-05T21:46:56.820Z,74.27
2019-02-05T21:49:27.350Z,73.47
2019-02-05T21:51:57.306Z,75.87
2019-02-05T21:54:27.102Z,76.37
2019-02-05T21:56:57.315Z,81.03
2019-02-05T21:59:27.233Z,80.80
2019-02-05T22:01:57.036Z,76.93
2019-02-05T22:04:28.260Z,79.97
2019-02-05T22:06:58.635Z,72.47
2019-02-05T22:09:28.909Z,79.17
2019-02-05T22:11:59.459Z,77.97
2019-02-05T22:14:30.738Z,69.87
2019-02-05T22:17:00.548Z,70.43
2019-02-05T22:19:30.550Z,74.87
2019-02-05T22:22:00.850Z,70.90
2019-02-05T22:24:30.804Z,73.53
2019-02-05T22:27:01.240Z,72.27
2019-02-05T22:29:31.087Z,73.50
2019-02-05T22:32:02.472Z,71.63
2019-02-05T22:34:39.218Z,71.70
2019-02-05T22:37:04.604Z,69.73
2019-02-05T22:39:35.024Z,67.77
2019-02-05T22:42:05.474Z,76.43
2019-02-05T22:44:35.588Z,80.47
2019-02-05T22:47:05.436Z,68.17
2019-02-05T22:49:35.386Z,69.27
2019-02-05T22:52:05.295Z,69.33
2019-02-05T22:54:35.377Z,74.30
2019-02-05T22:57:05.273Z,71.20
2019-02-05T22:59:36.157Z,66.95
2019-02-05T23:02:05.963Z,71.97
2019-02-05T23:04:38.228Z,67.63
2019-02-05T23:07:09.502Z,74.93
2019-02-05T23:09:41.120Z,67.87
2019-02-05T23:12:12.378Z,69.57
2019-02-05T23:14:44.156Z,69.33
2019-02-05T23:17:14.510Z,70.83
2019-02-05T23:19:44.884Z,67.53
2019-02-05T23:22:15.304Z,69.20
2019-02-05T23:24:45.122Z,68.73
2019-02-05T23:27:15.064Z,65.63
2019-02-05T23:29:45.855Z,72.20
2019-02-05T23:32:15.683Z,72.33
2019-02-05T23:34:45.783Z,67.53
2019-02-05T23:37:15.555Z,69.97
2019-02-05T23:39:47.344Z,65.77
2019-02-05T23:42:17.142Z,64.60
2019-02-05T23:44:48.563Z,65.33
2019-02-05T23:47:18.439Z,68.63
2019-02-05T23:49:48.199Z,71.17
2019-02-05T23:52:17.935Z,65.93
2019-02-05T23:54:47.757Z,67.23
2019-02-05T23:57:17.546Z,69.90
2019-02-05T23:59:47.395Z,68.23
